createdAt,value
2023-02-14T00:01:10.960Z,21.48
2023-02-14T00:03:42.863Z,19.17
2023-02-14T00:06:13.206Z,18.13
2023-02-14T00:08:41.469Z,17.35
2023-02-14T00:16:15.707Z,20.00
2023-02-14T00:18:42.122Z,14.02
2023-02-14T00:21:08.508Z,15.38
2023-02-14T00:23:34.950Z,18.67
2023-02-14T00:26:01.378Z,22.55
2023-02-14T00:28:27.745Z,20.70
2023-02-14T00:30:56.882Z,21.55
2023-02-14T00:33:23.897Z,23.98
2023-02-14T00:35:50.397Z,24.77
2023-02-14T00:38:16.793Z,22.70
2023-02-14T00:40:44.524Z,23.90
2023-02-14T00:43:16.430Z,19.60
2023-02-14T00:45:50.971Z,23.13
2023-02-14T00:50:43.778Z,18.92
2023-02-14T00:53:11.505Z,24.67
2023-02-14T00:55:44.702Z,19.40
2023-02-14T00:58:11.078Z,26.20
2023-02-14T01:00:37.484Z,23.27
2023-02-14T01:03:03.993Z,20.25
2023-02-14T01:05:30.440Z,26.20
2023-02-14T01:08:01.904Z,22.30
2023-02-14T01:10:28.342Z,19.50
2023-02-14T01:12:54.814Z,18.27
2023-02-14T01:15:31.429Z,23.33
2023-02-14T01:17:59.191Z,19.08
2023-02-14T01:20:26.568Z,21.38
2023-02-14T01:22:53.024Z,20.38
2023-02-14T01:25:20.536Z,16.88
2023-02-14T01:27:46.996Z,22.90
2023-02-14T01:30:13.847Z,25.23
2023-02-14T01:32:45.313Z,23.15
2023-02-14T01:35:12.014Z,21.10
2023-02-14T01:37:38.467Z,20.55
2023-02-14T01:40:07.043Z,24.75
2023-02-14T01:42:34.270Z,24.08
2023-02-14T01:45:09.004Z,23.80
2023-02-14T01:47:47.213Z,18.85
2023-02-14T01:50:17.592Z,18.25
2023-02-14T01:52:47.561Z,23.08
2023-02-14T01:55:16.861Z,22.67
2023-02-14T01:57:45.690Z,20.33
2023-02-14T02:00:12.387Z,19.15
2023-02-14T02:02:42.661Z,19.10
2023-02-14T02:05:09.092Z,22.13
2023-02-14T02:07:36.278Z,16.73
2023-02-14T02:10:03.661Z,18.35
2023-02-14T02:12:31.034Z,20.60
2023-02-14T02:14:58.236Z,17.83
2023-02-14T02:17:29.279Z,23.45
2023-02-14T02:20:15.673Z,25.08
2023-02-14T02:25:27.415Z,17.00
2023-02-14T02:28:15.474Z,17.58
2023-02-14T02:30:44.991Z,18.67
2023-02-14T02:33:22.180Z,20.98
2023-02-14T02:35:51.632Z,18.55
2023-02-14T02:38:21.049Z,20.63
2023-02-14T02:40:52.119Z,22.33
2023-02-14T02:43:43.231Z,23.52
2023-02-14T02:46:21.584Z,18.85
2023-02-14T02:48:55.014Z,16.80
2023-02-14T02:51:28.595Z,19.95
2023-02-14T02:53:57.752Z,18.13
2023-02-14T02:56:32.394Z,23.80
2023-02-14T03:01:29.465Z,21.50
2023-02-14T03:04:02.808Z,19.45
2023-02-14T03:06:38.366Z,21.15
2023-02-14T03:09:31.680Z,20.27
2023-02-14T03:12:03.754Z,16.73
2023-02-14T03:14:56.502Z,22.65
2023-02-14T03:17:35.185Z,16.95
2023-02-14T03:20:07.916Z,22.27
2023-02-14T03:22:53.020Z,21.13
2023-02-14T03:28:14.767Z,16.45
2023-02-14T03:31:00.554Z,18.52
2023-02-14T03:33:27.171Z,18.73
2023-02-14T03:36:12.394Z,18.85
2023-02-14T03:38:44.999Z,23.67
2023-02-14T03:41:18.040Z,21.35
2023-02-14T03:43:47.402Z,17.63
2023-02-14T03:46:20.268Z,18.08
2023-02-14T03:51:19.365Z,18.80
2023-02-14T03:53:55.074Z,17.25
2023-02-14T03:56:33.839Z,19.17
2023-02-14T03:59:03.925Z,16.23
2023-02-14T04:01:33.763Z,17.17
2023-02-14T04:04:00.727Z,18.95
2023-02-14T04:06:27.260Z,19.83
2023-02-14T04:08:53.711Z,19.30
2023-02-14T04:11:20.422Z,21.13
2023-02-14T04:13:46.859Z,20.10
2023-02-14T04:16:17.974Z,19.10
2023-02-14T04:18:47.102Z,17.00
2023-02-14T04:21:13.667Z,18.38
2023-02-14T04:23:40.127Z,18.15
2023-02-14T04:26:09.334Z,18.23
2023-02-14T04:28:37.672Z,17.30
2023-02-14T04:31:05.337Z,17.00
2023-02-14T04:33:32.382Z,17.60
2023-02-14T04:35:59.203Z,20.80
2023-02-14T04:38:25.740Z,18.42
2023-02-14T04:40:52.441Z,16.08
2023-02-14T04:43:26.078Z,18.85
2023-02-14T04:45:53.730Z,16.75
2023-02-14T04:48:20.139Z,15.50
2023-02-14T04:50:56.209Z,15.90
2023-02-14T04:53:22.651Z,16.67
2023-02-14T04:55:49.786Z,16.60
2023-02-14T04:58:16.435Z,18.48
2023-02-14T05:00:50.775Z,16.77
2023-02-14T05:03:17.409Z,19.45
2023-02-14T05:05:44.711Z,17.95
2023-02-14T05:08:11.081Z,16.65
2023-02-14T05:10:37.508Z,17.13
2023-02-14T05:13:04.700Z,16.58
2023-02-14T05:15:31.168Z,18.95
2023-02-14T05:17:57.621Z,18.30
2023-02-14T05:20:30.311Z,20.10
2023-02-14T05:22:56.899Z,17.35
2023-02-14T05:25:23.379Z,17.30
2023-02-14T05:27:49.793Z,17.75
2023-02-14T05:30:16.291Z,18.27
2023-02-14T05:32:42.797Z,19.27
2023-02-14T05:37:40.919Z,17.80
2023-02-14T05:40:07.681Z,17.55
2023-02-14T05:42:39.759Z,18.95
2023-02-14T05:45:06.707Z,19.13
2023-02-14T05:47:33.129Z,19.13
2023-02-14T05:49:59.573Z,16.98
2023-02-14T05:52:26.027Z,21.58
2023-02-14T05:54:52.727Z,19.10
2023-02-14T05:57:19.728Z,21.60
2023-02-14T05:59:46.291Z,22.23
2023-02-14T06:02:12.836Z,19.95
2023-02-14T06:04:39.420Z,19.63
2023-02-14T06:07:06.019Z,19.15
2023-02-14T06:09:41.596Z,20.65
2023-02-14T06:12:08.046Z,18.90
2023-02-14T06:14:34.549Z,19.02
2023-02-14T06:17:03.063Z,18.95
2023-02-14T06:19:29.508Z,19.52
2023-02-14T06:22:10.627Z,21.80
2023-02-14T06:24:37.185Z,19.38
2023-02-14T06:27:04.865Z,23.70
2023-02-14T06:29:34.374Z,21.10
2023-02-14T06:32:02.012Z,20.15
2023-02-14T06:34:28.562Z,21.30
2023-02-14T06:36:55.022Z,22.00
2023-02-14T06:39:21.531Z,22.05
2023-02-14T06:41:48.998Z,21.05
2023-02-14T06:44:15.418Z,21.13
2023-02-14T06:46:41.950Z,21.48
2023-02-14T06:49:09.717Z,21.92
2023-02-14T06:51:36.371Z,21.00
2023-02-14T06:54:09.051Z,21.60
2023-02-14T06:56:35.436Z,21.33
2023-02-14T06:59:01.943Z,22.33
2023-02-14T07:01:28.490Z,23.65
2023-02-14T07:03:59.139Z,21.48
2023-02-14T07:06:25.577Z,21.38
2023-02-14T07:08:52.034Z,22.13
2023-02-14T07:11:22.542Z,21.25
2023-02-14T07:13:49.919Z,21.58
2023-02-14T07:16:16.335Z,22.92
2023-02-14T07:18:42.764Z,20.85
2023-02-14T07:21:09.332Z,20.98
2023-02-14T07:23:38.817Z,18.98
2023-02-14T07:26:05.308Z,22.27
2023-02-14T07:28:31.780Z,20.35
2023-02-14T07:31:01.646Z,21.27
2023-02-14T07:33:28.385Z,22.92
2023-02-14T07:35:55.100Z,24.15
2023-02-14T07:38:21.521Z,24.40
2023-02-14T07:40:47.879Z,20.40
2023-02-14T07:43:14.901Z,21.83
2023-02-14T07:45:43.248Z,22.17
2023-02-14T07:48:17.649Z,20.30
2023-02-14T07:50:44.853Z,24.08
2023-02-14T07:53:11.831Z,22.90
2023-02-14T07:55:38.249Z,24.55
2023-02-14T07:58:04.780Z,24.23
2023-02-14T08:00:31.862Z,22.80
2023-02-14T08:03:07.093Z,24.95
2023-02-14T08:05:34.864Z,25.35
2023-02-14T08:08:09.841Z,21.42
2023-02-14T08:10:37.845Z,24.33
2023-02-14T08:13:04.224Z,24.80
2023-02-14T08:15:32.488Z,23.08
2023-02-14T08:17:58.889Z,23.42
2023-02-14T08:20:25.312Z,28.23
2023-02-14T08:22:58.280Z,27.55
2023-02-14T08:25:25.886Z,25.20
2023-02-14T08:27:57.062Z,24.63
2023-02-14T08:30:29.955Z,28.20
2023-02-14T08:32:56.551Z,28.63
2023-02-14T08:35:25.961Z,32.05
2023-02-14T08:37:52.533Z,30.05
2023-02-14T08:42:51.016Z,28.95
2023-02-14T08:45:17.535Z,31.30
2023-02-14T08:47:43.972Z,27.98
2023-02-14T08:50:14.142Z,29.20
2023-02-14T08:52:41.892Z,27.38
2023-02-14T08:55:08.447Z,32.00
2023-02-14T08:57:34.851Z,33.85
2023-02-14T09:00:01.304Z,33.45
2023-02-14T09:02:27.811Z,35.88
2023-02-14T09:04:54.283Z,37.22
2023-02-14T09:09:52.060Z,33.83
2023-02-14T09:12:18.601Z,39.20
2023-02-14T09:14:49.556Z,42.25
2023-02-14T09:17:16.155Z,37.90
2023-02-14T09:19:42.620Z,39.08
2023-02-14T09:22:10.084Z,38.25
2023-02-14T09:24:37.141Z,39.65
2023-02-14T09:27:04.073Z,37.65
2023-02-14T09:29:30.527Z,36.67
2023-02-14T09:31:57.950Z,36.53
2023-02-14T09:34:27.389Z,41.53
2023-02-14T09:36:53.985Z,37.00
2023-02-14T09:39:20.353Z,39.63
2023-02-14T09:41:58.836Z,39.53
2023-02-14T09:44:51.699Z,39.88
2023-02-14T09:47:20.597Z,48.88
2023-02-14T09:49:47.701Z,56.13
2023-02-14T09:52:21.700Z,52.38
2023-02-14T09:54:51.968Z,48.47
2023-02-14T09:57:27.136Z,55.75
2023-02-14T10:00:17.927Z,52.67
2023-02-14T10:02:53.371Z,57.85
2023-02-14T10:05:22.559Z,55.78
2023-02-14T10:07:48.967Z,54.78
2023-02-14T10:10:15.337Z,57.05
2023-02-14T10:12:51.600Z,60.00
2023-02-14T10:15:24.110Z,58.22
2023-02-14T10:17:56.989Z,59.92
2023-02-14T10:23:30.143Z,55.28
2023-02-14T10:26:01.193Z,53.80
2023-02-14T10:28:48.005Z,51.17
2023-02-14T10:31:14.748Z,55.55
2023-02-14T10:33:44.264Z,49.85
2023-02-14T10:36:34.043Z,54.90
2023-02-14T10:39:19.117Z,58.80
2023-02-14T10:42:04.192Z,62.60
2023-02-14T10:44:35.627Z,54.40
2023-02-14T10:47:14.126Z,59.15
2023-02-14T10:49:57.446Z,64.05
2023-02-14T10:52:35.219Z,58.40
2023-02-14T10:55:31.964Z,63.15
2023-02-14T11:00:37.586Z,59.30
2023-02-14T11:03:08.080Z,66.40
2023-02-14T11:05:36.643Z,62.92
2023-02-14T11:08:17.892Z,63.13
2023-02-14T11:10:51.718Z,60.13
2023-02-14T11:13:37.056Z,58.05
2023-02-14T11:16:20.034Z,63.92
2023-02-14T11:18:46.495Z,62.35
2023-02-14T11:21:17.301Z,62.28
2023-02-14T11:23:44.971Z,62.25
2023-02-14T11:26:21.285Z,63.08
2023-02-14T11:28:58.762Z,56.20
2023-02-14T11:31:39.110Z,64.65
2023-02-14T11:34:17.059Z,66.75
2023-02-14T11:39:34.229Z,69.53
2023-02-14T11:42:10.411Z,68.50
2023-02-14T11:44:36.988Z,68.13
2023-02-14T11:47:20.359Z,67.38
2023-02-14T11:49:57.323Z,66.25
2023-02-14T11:52:24.045Z,69.78
2023-02-14T11:54:50.505Z,68.22
2023-02-14T11:57:16.900Z,67.70
2023-02-14T11:59:43.331Z,69.20
2023-02-14T12:02:28.124Z,67.97
2023-02-14T12:05:07.714Z,65.80
2023-02-14T12:07:37.492Z,68.93
2023-02-14T12:10:10.052Z,72.10
2023-02-14T12:12:38.206Z,65.22
2023-02-14T12:15:32.164Z,66.75
2023-02-14T12:18:21.104Z,64.13
2023-02-14T12:20:56.731Z,65.13
2023-02-14T12:23:29.208Z,58.90
2023-02-14T12:26:04.652Z,64.10
2023-02-14T12:28:34.965Z,64.38
2023-02-14T12:31:01.642Z,65.85
2023-02-14T12:33:32.200Z,71.82
2023-02-14T12:36:19.098Z,64.97
2023-02-14T12:38:45.730Z,68.93
2023-02-14T12:41:25.844Z,65.22
2023-02-14T12:43:52.200Z,61.53
2023-02-14T12:46:39.888Z,64.88
2023-02-14T12:49:25.165Z,63.03
2023-02-14T12:51:51.572Z,61.67
2023-02-14T12:54:36.549Z,62.30
2023-02-14T12:57:20.402Z,63.85
2023-02-14T13:00:05.751Z,65.60
2023-02-14T13:02:57.333Z,60.95
2023-02-14T13:05:54.143Z,62.10
2023-02-14T13:08:45.594Z,60.22
2023-02-14T13:11:33.825Z,65.53
2023-02-14T13:14:16.508Z,61.00
2023-02-14T13:17:04.046Z,60.03
2023-02-14T13:19:36.846Z,62.83
2023-02-14T13:22:05.833Z,61.47
2023-02-14T13:24:41.518Z,61.03
2023-02-14T13:27:13.257Z,63.63
2023-02-14T13:29:56.565Z,65.88
2023-02-14T13:32:25.869Z,60.85
2023-02-14T13:37:25.126Z,63.85
2023-02-14T13:39:54.336Z,61.28
2023-02-14T13:42:45.694Z,62.90
2023-02-14T13:45:33.263Z,62.75
2023-02-14T13:48:18.163Z,62.13
2023-02-14T13:50:54.557Z,62.45
2023-02-14T13:53:47.337Z,60.72
2023-02-14T13:56:21.242Z,61.92
2023-02-14T13:58:47.581Z,64.22
2023-02-14T14:01:32.946Z,60.92
2023-02-14T14:04:23.286Z,68.43
2023-02-14T14:07:18.568Z,67.68
2023-02-14T14:09:44.976Z,63.83
2023-02-14T14:15:10.373Z,63.90
2023-02-14T14:17:43.186Z,64.90
2023-02-14T14:20:15.686Z,66.32
2023-02-14T14:22:48.025Z,65.85
2023-02-14T14:25:30.139Z,67.25
2023-02-14T14:27:56.663Z,68.35
2023-02-14T14:30:32.646Z,68.43
2023-02-14T14:33:17.820Z,67.95
2023-02-14T14:35:54.464Z,67.22
2023-02-14T14:38:21.002Z,64.63
2023-02-14T14:40:52.174Z,64.53
2023-02-14T14:43:30.158Z,65.32
2023-02-14T14:46:03.776Z,68.93
2023-02-14T14:48:47.721Z,69.28
2023-02-14T14:51:30.472Z,66.18
2023-02-14T14:54:05.038Z,63.95
2023-02-14T14:56:35.359Z,62.05
2023-02-14T14:59:16.887Z,67.47
2023-02-14T15:01:44.229Z,67.53
2023-02-14T15:04:24.405Z,63.85
2023-02-14T15:06:52.153Z,68.25
2023-02-14T15:09:29.958Z,69.60
2023-02-14T15:12:02.822Z,70.53
2023-02-14T15:14:31.135Z,66.25
2023-02-14T15:17:01.462Z,68.43
2023-02-14T15:19:36.596Z,71.13
2023-02-14T15:22:06.297Z,71.28
2023-02-14T15:24:36.428Z,69.70
2023-02-14T15:27:04.239Z,70.18
2023-02-14T15:29:32.231Z,71.05
2023-02-14T15:34:33.364Z,71.68
2023-02-14T15:37:00.648Z,68.60
2023-02-14T15:39:29.802Z,68.65
2023-02-14T15:41:56.537Z,66.97
2023-02-14T15:44:37.564Z,75.32
2023-02-14T15:47:08.130Z,70.75
2023-02-14T15:49:40.257Z,70.38
2023-02-14T15:52:12.636Z,68.45
2023-02-14T15:57:23.631Z,71.05
2023-02-14T15:59:50.461Z,64.90
2023-02-14T16:02:45.073Z,67.65
2023-02-14T16:05:24.413Z,71.00
2023-02-14T16:07:59.110Z,74.90
2023-02-14T16:10:31.292Z,75.43
2023-02-14T16:13:01.051Z,71.78
2023-02-14T16:15:29.365Z,68.10
2023-02-14T16:17:55.853Z,64.80
2023-02-14T16:20:31.828Z,79.53
2023-02-14T16:23:17.360Z,71.10
2023-02-14T16:25:44.191Z,63.72
2023-02-14T16:28:17.291Z,62.83
2023-02-14T16:30:54.152Z,76.22
2023-02-14T16:33:33.527Z,69.03
2023-02-14T16:36:05.147Z,73.72
2023-02-14T16:38:34.754Z,60.15
2023-02-14T16:41:04.269Z,60.85
2023-02-14T16:43:34.660Z,66.25
2023-02-14T16:46:01.613Z,66.70
2023-02-14T16:51:07.253Z,63.30
2023-02-14T16:53:35.338Z,63.17
2023-02-14T16:58:43.580Z,56.80
2023-02-14T17:01:10.353Z,67.70
2023-02-14T17:03:39.748Z,67.75
2023-02-14T17:06:13.778Z,68.95
2023-02-14T17:08:46.560Z,70.88
2023-02-14T17:11:13.091Z,60.90
2023-02-14T17:13:41.989Z,69.68
2023-02-14T17:16:09.449Z,82.22
2023-02-14T17:18:39.658Z,80.88
2023-02-14T17:21:06.339Z,86.43
2023-02-14T17:23:35.527Z,79.43
2023-02-14T17:26:01.969Z,81.47
2023-02-14T17:28:29.801Z,74.05
2023-02-14T17:31:00.461Z,70.80
2023-02-14T17:33:33.258Z,75.40
2023-02-14T17:36:06.710Z,66.50
2023-02-14T17:38:34.297Z,73.95
2023-02-14T17:41:10.005Z,73.78
2023-02-14T17:43:40.821Z,78.13
2023-02-14T17:46:10.929Z,66.25
2023-02-14T17:48:45.271Z,66.10
2023-02-14T17:51:17.530Z,76.10
2023-02-14T17:53:59.073Z,71.75
2023-02-14T17:56:32.087Z,76.97
2023-02-14T17:59:00.395Z,70.97
2023-02-14T18:01:28.319Z,76.70
2023-02-14T18:04:06.405Z,68.60
2023-02-14T18:06:34.223Z,71.40
2023-02-14T18:09:05.940Z,67.20
2023-02-14T18:11:37.204Z,68.75
2023-02-14T18:14:05.595Z,70.03
2023-02-14T18:16:32.111Z,65.40
2023-02-14T18:19:03.363Z,66.00
2023-02-14T18:21:32.461Z,71.00
2023-02-14T18:24:00.399Z,68.25
2023-02-14T18:26:34.916Z,67.63
2023-02-14T18:31:43.220Z,63.00
2023-02-14T18:34:12.166Z,75.82
2023-02-14T18:36:45.618Z,70.80
2023-02-14T18:39:13.133Z,71.85
2023-02-14T18:41:39.692Z,75.05
2023-02-14T18:44:06.578Z,68.63
2023-02-14T18:46:37.354Z,72.13
2023-02-14T18:49:05.890Z,69.97
2023-02-14T18:51:41.774Z,69.47
2023-02-14T18:54:14.037Z,78.47
2023-02-14T18:56:46.654Z,74.85
2023-02-14T18:59:22.911Z,72.13
2023-02-14T19:01:54.785Z,71.57
2023-02-14T19:04:21.755Z,71.00
2023-02-14T19:06:49.430Z,75.18
2023-02-14T19:09:16.546Z,77.88
2023-02-14T19:11:43.525Z,76.47
2023-02-14T19:14:11.470Z,78.13
2023-02-14T19:16:42.112Z,71.78
2023-02-14T19:19:08.691Z,71.75
2023-02-14T19:21:41.420Z,75.05
2023-02-14T19:24:16.216Z,66.75
2023-02-14T19:26:44.280Z,74.80
2023-02-14T19:29:12.145Z,74.78
2023-02-14T19:31:40.782Z,73.05
2023-02-14T19:34:08.348Z,75.32
2023-02-14T19:36:42.804Z,75.03
2023-02-14T19:39:17.222Z,71.40
2023-02-14T19:41:46.869Z,72.50
2023-02-14T19:44:15.807Z,75.57
2023-02-14T19:46:48.552Z,72.22
2023-02-14T19:49:22.297Z,73.45
2023-02-14T19:51:49.438Z,68.40
2023-02-14T19:54:25.691Z,65.47
2023-02-14T19:56:53.126Z,77.63
2023-02-14T19:59:20.345Z,64.00
2023-02-14T20:01:48.242Z,56.60
2023-02-14T20:04:24.611Z,59.83
2023-02-14T20:06:54.457Z,66.75
2023-02-14T20:09:22.686Z,68.70
2023-02-14T20:11:49.289Z,66.93
2023-02-14T20:14:22.245Z,66.38
2023-02-14T20:16:53.287Z,66.38
2023-02-14T20:19:25.876Z,71.93
2023-02-14T20:21:52.626Z,64.68
2023-02-14T20:24:21.765Z,76.95
2023-02-14T20:26:50.852Z,79.43
2023-02-14T20:29:18.065Z,68.07
2023-02-14T20:31:50.693Z,74.18
2023-02-14T20:34:21.023Z,75.00
2023-02-14T20:36:53.429Z,77.78
2023-02-14T20:39:20.655Z,76.25
2023-02-14T20:41:47.164Z,78.50
2023-02-14T20:44:14.456Z,71.35
2023-02-14T20:46:42.578Z,68.05
2023-02-14T20:49:12.204Z,68.18
2023-02-14T20:51:45.695Z,71.85
2023-02-14T20:54:12.810Z,65.10
2023-02-14T20:56:45.672Z,72.38
2023-02-14T20:59:13.933Z,58.85
2023-02-14T21:01:40.774Z,72.70
2023-02-14T21:04:09.022Z,66.28
2023-02-14T21:06:43.121Z,61.72
2023-02-14T21:09:11.203Z,66.60
2023-02-14T21:11:37.718Z,62.08
2023-02-14T21:14:04.699Z,63.47
2023-02-14T21:16:31.354Z,68.32
2023-02-14T21:19:04.803Z,68.47
2023-02-14T21:21:37.123Z,72.07
2023-02-14T21:24:06.831Z,54.72
2023-02-14T21:26:39.090Z,65.15
2023-02-14T21:29:06.965Z,60.22
2023-02-14T21:31:34.452Z,66.50
2023-02-14T21:34:05.383Z,60.00
2023-02-14T21:36:33.413Z,61.15
2023-02-14T21:39:03.656Z,61.70
2023-02-14T21:41:44.650Z,59.38
2023-02-14T21:44:15.698Z,53.90
2023-02-14T21:46:42.304Z,62.47
2023-02-14T21:49:09.128Z,60.45
2023-02-14T21:51:35.856Z,55.40
2023-02-14T21:54:04.680Z,59.35
2023-02-14T21:56:31.356Z,58.15
2023-02-14T21:59:03.478Z,56.08
2023-02-14T22:01:33.678Z,73.13
2023-02-14T22:04:00.820Z,64.00
2023-02-14T22:06:27.976Z,55.63
2023-02-14T22:08:56.663Z,71.05
2023-02-14T22:11:26.000Z,73.78
2023-02-14T22:13:52.567Z,57.08
2023-02-14T22:16:21.533Z,53.78
2023-02-14T22:18:53.099Z,62.97
2023-02-14T22:21:22.317Z,58.17
2023-02-14T22:23:52.245Z,57.38
2023-02-14T22:28:56.201Z,44.45
2023-02-14T22:31:37.202Z,44.05
2023-02-14T22:34:16.417Z,45.35
2023-02-14T22:36:44.593Z,54.88
2023-02-14T22:39:20.688Z,55.00
2023-02-14T22:41:48.587Z,55.53
2023-02-14T22:44:16.555Z,62.85
2023-02-14T22:46:44.794Z,53.92
2023-02-14T22:49:11.374Z,47.92
2023-02-14T22:51:40.305Z,50.50
2023-02-14T22:54:18.575Z,55.00
2023-02-14T22:56:46.292Z,59.30
2023-02-14T22:59:21.096Z,50.08
2023-02-14T23:01:48.569Z,46.10
2023-02-14T23:04:16.462Z,49.17
2023-02-14T23:06:43.497Z,40.70
2023-02-14T23:09:12.846Z,47.08
2023-02-14T23:11:44.879Z,48.83
2023-02-14T23:14:17.194Z,50.20
2023-02-14T23:16:44.094Z,54.85
2023-02-14T23:19:18.881Z,52.13
2023-02-14T23:21:46.325Z,45.45
2023-02-14T23:24:12.863Z,48.88
2023-02-14T23:26:39.271Z,44.13
2023-02-14T23:29:06.663Z,43.63
2023-02-14T23:31:33.249Z,40.95
2023-02-14T23:34:00.833Z,42.53
2023-02-14T23:36:30.269Z,37.88
2023-02-14T23:38:57.433Z,40.55
2023-02-14T23:41:27.755Z,49.05
2023-02-14T23:43:58.866Z,52.78
2023-02-14T23:46:39.621Z,58.42
2023-02-14T23:49:07.446Z,53.85
2023-02-14T23:51:34.694Z,59.17
2023-02-14T23:54:11.052Z,56.72
2023-02-14T23:56:41.895Z,63.03
2023-02-14T23:59:08.958Z,58.67
